createdAt,value
2022-12-24T00:00:48.000Z,46.6
2022-12-24T00:01:58.340Z,46.6
2022-12-24T00:03:08.000Z,46.7
2022-12-24T00:04:18.000Z,46.7
2022-12-24T00:05:28.000Z,46.7
2022-12-24T00:06:38.000Z,46.7
2022-12-24T00:07:47.000Z,46.7
2022-12-24T00:08:58.000Z,46.7
2022-12-24T00:10:08.000Z,46.7
2022-12-24T00:11:18.000Z,46.7
2022-12-24T00:12:28.389Z,46.7
2022-12-24T00:13:38.000Z,46.7
2022-12-24T00:14:48.611Z,46.7
2022-12-24T00:15:58.000Z,46.7
2022-12-24T00:17:08.843Z,46.7
2022-12-24T00:18:18.961Z,46.7
2022-12-24T00:19:29.000Z,46.7
2022-12-24T00:20:39.191Z,46.7
2022-12-24T00:21:49.000Z,46.7
2022-12-24T00:22:58.000Z,46.7
2022-12-24T00:24:08.000Z,46.7
2022-12-24T00:25:18.678Z,46.7
2022-12-24T00:26:28.000Z,46.7
2022-12-24T00:27:38.907Z,46.7
2022-12-24T00:28:49.000Z,46.7
2022-12-24T00:29:59.138Z,46.7
2022-12-24T00:31:09.000Z,46.7
2022-12-24T00:32:19.370Z,46.7
2022-12-24T00:33:29.000Z,46.7
2022-12-24T00:34:39.600Z,46.8
2022-12-24T00:35:49.000Z,46.8
2022-12-24T00:36:59.845Z,46.8
2022-12-24T00:38:08.972Z,46.8
2022-12-24T00:39:19.084Z,46.8
2022-12-24T00:40:29.000Z,46.8
2022-12-24T00:41:39.000Z,46.8
2022-12-24T00:42:49.426Z,46.8
2022-12-24T00:43:59.000Z,46.8
2022-12-24T00:45:08.000Z,46.8
2022-12-24T00:46:18.000Z,46.8
2022-12-24T00:47:28.914Z,46.8
2022-12-24T00:48:39.000Z,46.8
2022-12-24T00:49:49.153Z,46.8
2022-12-24T00:50:59.000Z,46.8
2022-12-24T00:52:09.000Z,46.8
2022-12-24T00:53:19.000Z,46.8
2022-12-24T00:54:29.000Z,46.8
2022-12-24T00:55:39.725Z,46.8
2022-12-24T00:56:49.000Z,46.8
2022-12-24T00:57:59.000Z,46.8
2022-12-24T00:59:10.073Z,46.8
2022-12-24T01:00:19.204Z,46.8
2022-12-24T01:01:29.000Z,46.8
2022-12-24T01:02:39.000Z,46.8
2022-12-24T01:03:49.000Z,46.8
2022-12-24T01:04:59.000Z,46.8
2022-12-24T01:06:09.000Z,46.8
2022-12-24T01:07:19.000Z,46.8
2022-12-24T01:08:30.000Z,46.9
2022-12-24T01:09:40.000Z,46.9
2022-12-24T01:10:50.253Z,46.9
2022-12-24T01:12:00.000Z,46.9
2022-12-24T01:13:10.000Z,46.9
2022-12-24T01:14:20.000Z,46.9
2022-12-24T01:15:29.738Z,46.9
2022-12-24T01:16:39.000Z,46.9
2022-12-24T01:17:49.000Z,46.9
2022-12-24T01:19:00.094Z,46.9
2022-12-24T01:20:10.000Z,46.9
2022-12-24T01:21:20.315Z,46.9
2022-12-24T01:22:30.430Z,46.9
2022-12-24T01:23:40.000Z,46.9
2022-12-24T01:24:50.664Z,46.9
2022-12-24T01:26:00.000Z,46.9
2022-12-24T01:27:10.000Z,46.9
2022-12-24T01:28:21.000Z,46.9
2022-12-24T01:29:31.000Z,46.9
2022-12-24T01:30:40.000Z,46.9
2022-12-24T01:31:50.000Z,46.9
2022-12-24T01:33:00.000Z,46.9
2022-12-24T01:34:10.000Z,46.9
2022-12-24T01:35:20.000Z,46.9
2022-12-24T01:36:30.837Z,46.9
2022-12-24T01:37:40.000Z,46.9
2022-12-24T01:38:51.068Z,46.9
2022-12-24T01:40:01.187Z,46.9
2022-12-24T01:41:11.000Z,46.9
2022-12-24T01:42:21.000Z,46.9
2022-12-24T01:43:31.000Z,46.9
2022-12-24T01:44:41.000Z,46.9
2022-12-24T01:45:50.776Z,46.9
2022-12-24T01:47:00.000Z,46.9
2022-12-24T01:48:11.010Z,46.9
2022-12-24T01:49:21.000Z,46.9
2022-12-24T01:50:31.000Z,46.9
2022-12-24T01:51:41.000Z,46.9
2022-12-24T01:52:51.000Z,46.9
2022-12-24T01:54:01.594Z,46.9
2022-12-24T01:55:11.000Z,46.9
2022-12-24T01:56:21.000Z,46.9
2022-12-24T01:57:31.000Z,46.9
2022-12-24T01:58:42.000Z,46.9
2022-12-24T01:59:52.166Z,46.9
2022-12-24T02:01:01.000Z,46.9
2022-12-24T02:02:11.000Z,46.9
2022-12-24T02:03:21.000Z,47
2022-12-24T02:04:31.000Z,47
2022-12-24T02:05:41.000Z,47
2022-12-24T02:06:51.000Z,47
2022-12-24T02:08:02.000Z,47
2022-12-24T02:09:12.140Z,47
2022-12-24T02:10:22.000Z,47
2022-12-24T02:11:32.000Z,47
2022-12-24T02:12:42.487Z,47
2022-12-24T02:13:52.603Z,47
2022-12-24T02:15:02.000Z,47
2022-12-24T02:16:11.852Z,47
2022-12-24T02:17:21.976Z,47
2022-12-24T02:18:32.000Z,47
2022-12-24T02:19:42.000Z,47
2022-12-24T02:20:52.319Z,47
2022-12-24T02:22:02.431Z,47
2022-12-24T02:23:12.554Z,47
2022-12-24T02:24:22.677Z,47
2022-12-24T02:25:32.779Z,47
2022-12-24T02:26:42.898Z,47
2022-12-24T02:27:53.000Z,47
2022-12-24T02:29:03.000Z,47
2022-12-24T02:30:13.000Z,47
2022-12-24T02:31:22.381Z,47
2022-12-24T02:32:32.000Z,47
2022-12-24T02:33:42.000Z,47
2022-12-24T02:34:52.000Z,47
2022-12-24T02:36:02.000Z,47
2022-12-24T02:37:12.954Z,47
2022-12-24T02:38:23.075Z,47
2022-12-24T02:39:33.000Z,47
2022-12-24T02:40:43.000Z,47
2022-12-24T02:41:53.000Z,47
2022-12-24T02:43:03.552Z,47
2022-12-24T02:44:13.656Z,47
2022-12-24T02:45:23.000Z,47
2022-12-24T02:46:32.000Z,47
2022-12-24T02:47:43.000Z,47
2022-12-24T02:48:53.000Z,47
2022-12-24T02:50:03.258Z,47
2022-12-24T02:51:13.000Z,47
2022-12-24T02:52:23.000Z,47
2022-12-24T02:53:33.598Z,47
2022-12-24T02:54:43.000Z,47
2022-12-24T02:55:53.828Z,47
2022-12-24T02:57:03.000Z,47
2022-12-24T02:58:14.000Z,47
2022-12-24T02:59:24.000Z,47
2022-12-24T03:00:34.291Z,47
2022-12-24T03:01:43.427Z,47
2022-12-24T03:02:53.000Z,47
2022-12-24T03:04:03.000Z,47
2022-12-24T03:05:13.000Z,47
2022-12-24T03:06:23.890Z,47
2022-12-24T03:07:34.000Z,47
2022-12-24T03:08:44.117Z,47
2022-12-24T03:09:54.000Z,47
2022-12-24T03:11:04.000Z,47
2022-12-24T03:12:14.000Z,47
2022-12-24T03:13:24.000Z,47
2022-12-24T03:14:34.000Z,47
2022-12-24T03:15:44.000Z,47
2022-12-24T03:16:53.000Z,47
2022-12-24T03:18:04.000Z,47
2022-12-24T03:19:14.000Z,47
2022-12-24T03:20:24.000Z,47
2022-12-24T03:21:34.000Z,47
2022-12-24T03:22:44.000Z,47
2022-12-24T03:23:54.000Z,47
2022-12-24T03:25:04.000Z,47
2022-12-24T03:26:14.872Z,47
2022-12-24T03:27:25.000Z,47
2022-12-24T03:28:35.000Z,47
2022-12-24T03:29:45.228Z,47
2022-12-24T03:30:55.340Z,47
2022-12-24T03:32:04.000Z,47
2022-12-24T03:33:14.597Z,47
2022-12-24T03:34:24.699Z,47
2022-12-24T03:35:34.000Z,47
2022-12-24T03:36:44.000Z,47
2022-12-24T03:37:55.000Z,47
2022-12-24T03:39:05.000Z,47
2022-12-24T03:40:15.290Z,47
2022-12-24T03:41:25.000Z,47
2022-12-24T03:42:35.517Z,47
2022-12-24T03:43:45.000Z,47
2022-12-24T03:44:55.000Z,47
2022-12-24T03:46:05.000Z,47
2022-12-24T03:47:15.000Z,47
2022-12-24T03:48:25.000Z,47
2022-12-24T03:49:35.227Z,47
2022-12-24T03:50:45.000Z,47
2022-12-24T03:51:55.000Z,47
2022-12-24T03:53:05.000Z,47
2022-12-24T03:54:15.000Z,47
2022-12-24T03:55:25.000Z,47
2022-12-24T03:56:35.927Z,47
2022-12-24T03:57:46.000Z,47
2022-12-24T03:58:56.166Z,47
2022-12-24T04:00:06.000Z,47.1
2022-12-24T04:01:16.000Z,47
2022-12-24T04:02:25.000Z,47
2022-12-24T04:03:35.635Z,47
2022-12-24T04:04:45.000Z,47.1
2022-12-24T04:05:55.000Z,47
2022-12-24T04:07:06.000Z,47.1
2022-12-24T04:08:16.000Z,47
2022-12-24T04:09:26.000Z,47
2022-12-24T04:10:36.000Z,47
2022-12-24T04:11:46.445Z,47.1
2022-12-24T04:12:56.562Z,47
2022-12-24T04:14:06.000Z,47.1
2022-12-24T04:15:16.000Z,47.1
2022-12-24T04:16:26.000Z,47.1
2022-12-24T04:17:36.000Z,47
2022-12-24T04:18:46.000Z,47
2022-12-24T04:19:56.328Z,47
2022-12-24T04:21:06.000Z,47
2022-12-24T04:22:16.000Z,47
2022-12-24T04:23:26.000Z,47
2022-12-24T04:24:36.000Z,47
2022-12-24T04:25:46.898Z,47
2022-12-24T04:26:57.027Z,47.1
2022-12-24T04:28:07.000Z,47
2022-12-24T04:29:17.242Z,47
2022-12-24T04:30:27.000Z,47
2022-12-24T04:31:37.476Z,47
2022-12-24T04:32:46.606Z,47
2022-12-24T04:33:56.000Z,47
2022-12-24T04:35:06.000Z,47
2022-12-24T04:36:16.957Z,47
2022-12-24T04:37:27.068Z,47.1
2022-12-24T04:38:37.000Z,47
2022-12-24T04:39:46.327Z,47
2022-12-24T04:40:56.444Z,47
2022-12-24T04:42:06.000Z,47
2022-12-24T04:43:16.669Z,47
2022-12-24T04:44:26.000Z,47
2022-12-24T04:45:36.000Z,47
2022-12-24T04:46:47.000Z,47
2022-12-24T04:47:57.000Z,47.1
2022-12-24T04:49:07.262Z,47
2022-12-24T04:50:17.000Z,47
2022-12-24T04:51:27.489Z,47
2022-12-24T04:52:37.000Z,47
2022-12-24T04:53:47.720Z,47
2022-12-24T04:54:56.000Z,47
2022-12-24T04:56:06.965Z,47
2022-12-24T04:57:17.000Z,47
2022-12-24T04:58:27.200Z,47
2022-12-24T04:59:37.000Z,47
2022-12-24T05:00:47.427Z,47
2022-12-24T05:01:57.000Z,47
2022-12-24T05:03:07.000Z,47
2022-12-24T05:04:17.779Z,47
2022-12-24T05:05:27.000Z,47
2022-12-24T05:06:38.015Z,47.1
2022-12-24T05:07:48.000Z,47
2022-12-24T05:08:58.241Z,47
2022-12-24T05:10:07.373Z,47
2022-12-24T05:11:17.000Z,47
2022-12-24T05:12:27.606Z,47
2022-12-24T05:13:37.725Z,47
2022-12-24T05:14:47.000Z,47
2022-12-24T05:15:57.961Z,47.1
2022-12-24T05:17:08.000Z,47
2022-12-24T05:18:18.193Z,47
2022-12-24T05:19:28.000Z,47
2022-12-24T05:20:38.427Z,47.1
2022-12-24T05:21:48.000Z,47
2022-12-24T05:22:58.000Z,47
2022-12-24T05:24:08.000Z,47
2022-12-24T05:25:17.000Z,47
2022-12-24T05:26:28.000Z,47.1
2022-12-24T05:27:38.000Z,47
2022-12-24T05:28:48.000Z,47.1
2022-12-24T05:29:58.000Z,47.1
2022-12-24T05:31:08.000Z,47.1
2022-12-24T05:32:18.000Z,47.1
2022-12-24T05:33:28.000Z,47.1
2022-12-24T05:34:38.834Z,47.1
2022-12-24T05:35:48.000Z,47.1
2022-12-24T05:36:59.000Z,47.1
2022-12-24T05:38:09.184Z,47.1
2022-12-24T05:39:19.298Z,47.1
2022-12-24T05:40:28.000Z,47.1
2022-12-24T05:41:38.542Z,47.1
2022-12-24T05:42:48.000Z,47.1
2022-12-24T05:43:58.771Z,47.1
2022-12-24T05:45:08.000Z,47.1
2022-12-24T05:46:19.000Z,47.1
2022-12-24T05:47:29.000Z,47.1
2022-12-24T05:48:39.000Z,47.1
2022-12-24T05:49:49.356Z,47
2022-12-24T05:50:59.000Z,47.1
2022-12-24T05:52:09.000Z,47.1
2022-12-24T05:53:19.000Z,47.1
2022-12-24T05:54:29.000Z,47.1
2022-12-24T05:55:38.951Z,47.1
2022-12-24T05:56:49.000Z,47.1
2022-12-24T05:57:59.000Z,47.1
2022-12-24T05:59:09.000Z,47.1
2022-12-24T06:00:19.413Z,47.1
2022-12-24T06:01:29.000Z,47.1
2022-12-24T06:02:39.000Z,47.1
2022-12-24T06:03:49.000Z,47.1
2022-12-24T06:04:59.898Z,47.1
2022-12-24T06:06:10.000Z,47.1
2022-12-24T06:07:20.109Z,47.1
2022-12-24T06:08:30.000Z,47.1
2022-12-24T06:09:40.341Z,47.1
2022-12-24T06:10:49.000Z,47.1
2022-12-24T06:11:59.000Z,47.1
2022-12-24T06:13:09.000Z,47.1
2022-12-24T06:14:19.836Z,47.1
2022-12-24T06:15:29.939Z,47.1
2022-12-24T06:16:40.000Z,47.1
2022-12-24T06:17:50.000Z,47.1
2022-12-24T06:19:00.000Z,47.1
2022-12-24T06:20:10.000Z,47.1
2022-12-24T06:21:20.517Z,47.1
2022-12-24T06:22:30.000Z,47.1
2022-12-24T06:23:40.000Z,47.1
2022-12-24T06:24:50.869Z,47.1
2022-12-24T06:26:00.000Z,47.1
2022-12-24T06:27:10.114Z,47.1
2022-12-24T06:28:20.000Z,47.1
2022-12-24T06:29:30.000Z,47.1
2022-12-24T06:30:40.492Z,47.1
2022-12-24T06:31:50.000Z,47.1
2022-12-24T06:33:00.704Z,47.1
2022-12-24T06:34:10.000Z,47.1
2022-12-24T06:35:20.000Z,47.1
2022-12-24T06:36:31.000Z,47.1
2022-12-24T06:37:41.000Z,47.1
2022-12-24T06:38:51.000Z,47.1
2022-12-24T06:40:01.000Z,47.2
2022-12-24T06:41:10.000Z,47.1
2022-12-24T06:42:20.000Z,47.1
2022-12-24T06:43:30.000Z,47.1
2022-12-24T06:44:40.944Z,47.1
2022-12-24T06:45:51.061Z,47.1
2022-12-24T06:47:01.179Z,47.1
2022-12-24T06:48:11.000Z,47.1
2022-12-24T06:49:21.000Z,47.1
2022-12-24T06:50:31.000Z,47.1
2022-12-24T06:51:41.000Z,47.1
2022-12-24T06:52:51.759Z,47.1
2022-12-24T06:54:01.875Z,47.1
2022-12-24T06:55:12.000Z,47.1
2022-12-24T06:56:21.132Z,47.1
2022-12-24T06:57:31.239Z,47.1
2022-12-24T06:58:41.000Z,47.2
2022-12-24T06:59:51.471Z,47.1
2022-12-24T07:01:01.591Z,47.1
2022-12-24T07:02:11.000Z,47.1
2022-12-24T07:03:21.000Z,47.2
2022-12-24T07:04:31.000Z,47.2
2022-12-24T07:05:42.000Z,47.2
2022-12-24T07:06:52.182Z,47.2
2022-12-24T07:08:02.000Z,47.2
2022-12-24T07:09:12.000Z,47.2
2022-12-24T07:10:22.000Z,47.2
2022-12-24T07:11:31.000Z,47.2
2022-12-24T07:12:41.000Z,47.2
2022-12-24T07:13:51.879Z,47.2
2022-12-24T07:15:02.000Z,47.2
2022-12-24T07:16:12.000Z,47.2
2022-12-24T07:17:22.223Z,47.2
2022-12-24T07:18:32.000Z,47.2
2022-12-24T07:19:42.457Z,47.2
2022-12-24T07:20:52.000Z,47.2
2022-12-24T07:22:02.000Z,47.2
2022-12-24T07:23:12.808Z,47.2
2022-12-24T07:24:22.927Z,47.2
2022-12-24T07:25:33.000Z,47.2
2022-12-24T07:26:42.000Z,47.2
2022-12-24T07:27:52.000Z,47.2
2022-12-24T07:29:02.000Z,47.2
2022-12-24T07:30:12.000Z,47.2
2022-12-24T07:31:22.000Z,47.2
2022-12-24T07:32:32.000Z,47.2
2022-12-24T07:33:42.867Z,47.2
2022-12-24T07:34:52.990Z,47.2
2022-12-24T07:36:03.100Z,47.2
2022-12-24T07:37:13.000Z,47.2
2022-12-24T07:38:23.337Z,47.2
2022-12-24T07:39:33.449Z,47.2
2022-12-24T07:40:43.583Z,47.2
2022-12-24T07:41:52.000Z,47.2
2022-12-24T07:43:02.809Z,47.2
2022-12-24T07:44:12.000Z,47.2
2022-12-24T07:45:23.044Z,47.2
2022-12-24T07:46:33.000Z,47.2
2022-12-24T07:47:43.000Z,47.2
2022-12-24T07:48:53.000Z,47.2
2022-12-24T07:50:03.000Z,47.2
2022-12-24T07:51:13.634Z,47.2
2022-12-24T07:52:23.000Z,47.2
2022-12-24T07:53:33.000Z,47.2
2022-12-24T07:54:43.000Z,47.2
2022-12-24T07:55:54.086Z,47.2
2022-12-24T07:57:03.000Z,47.2
2022-12-24T07:58:13.000Z,47.2
2022-12-24T07:59:23.000Z,47.2
2022-12-24T08:00:33.000Z,47.2
2022-12-24T08:01:43.680Z,47.2
2022-12-24T08:02:53.802Z,47.2
2022-12-24T08:04:03.000Z,47.2
2022-12-24T08:05:14.000Z,47.2
2022-12-24T08:06:24.157Z,47.2
2022-12-24T08:07:34.000Z,47.2
2022-12-24T08:08:44.000Z,47.2
2022-12-24T08:09:54.000Z,47.2
2022-12-24T08:11:04.000Z,47.2
2022-12-24T08:12:13.000Z,47.2
2022-12-24T08:13:23.855Z,47.2
2022-12-24T08:14:33.977Z,47.2
2022-12-24T08:15:44.000Z,47.2
2022-12-24T08:16:54.000Z,47.2
2022-12-24T08:18:04.000Z,47.2
2022-12-24T08:19:14.000Z,47.2
2022-12-24T08:20:24.000Z,47.2
2022-12-24T08:21:34.000Z,47.2
2022-12-24T08:22:44.000Z,47.2
2022-12-24T08:23:54.000Z,47.2
2022-12-24T08:25:05.000Z,47.3
2022-12-24T08:27:25.256Z,47.2
2022-12-24T08:28:34.386Z,47.2
2022-12-24T08:29:44.000Z,47.3
2022-12-24T08:30:54.000Z,47.3
2022-12-24T08:32:04.000Z,47.3
2022-12-24T08:33:14.000Z,47.3
2022-12-24T08:34:24.000Z,47.3
2022-12-24T08:35:34.000Z,47.3
2022-12-24T08:36:44.000Z,47.3
2022-12-24T08:37:54.000Z,47.3
2022-12-24T08:39:04.000Z,47.3
2022-12-24T08:40:14.000Z,47.3
2022-12-24T08:41:24.682Z,47.2
2022-12-24T08:42:34.810Z,47.3
2022-12-24T08:43:44.000Z,47.2
2022-12-24T08:44:55.000Z,47.3
2022-12-24T08:46:05.141Z,47.3
2022-12-24T08:47:15.000Z,47.4
2022-12-24T08:48:25.381Z,47.3
2022-12-24T08:49:34.511Z,47.4
2022-12-24T08:50:44.000Z,47.3
2022-12-24T08:51:54.740Z,47.3
2022-12-24T08:53:04.000Z,47.3
2022-12-24T08:54:14.000Z,47.4
2022-12-24T08:55:25.000Z,47.3
2022-12-24T08:56:35.000Z,47.4
2022-12-24T08:57:45.000Z,47.4
2022-12-24T08:58:55.000Z,47.4
2022-12-24T09:00:05.564Z,47.3
2022-12-24T09:01:15.000Z,47.4
2022-12-24T09:02:25.000Z,47.3
2022-12-24T09:03:35.897Z,47.4
2022-12-24T09:04:45.035Z,47.4
2022-12-24T09:05:55.000Z,47.4
2022-12-24T09:07:05.000Z,47.4
2022-12-24T09:08:15.000Z,47.4
2022-12-24T09:09:25.491Z,47.4
2022-12-24T09:10:35.618Z,47.4
2022-12-24T09:11:45.000Z,47.4
2022-12-24T09:12:55.000Z,47.5
2022-12-24T09:14:05.000Z,47.4
2022-12-24T09:15:16.073Z,47.4
2022-12-24T09:16:26.000Z,47.5
2022-12-24T09:17:36.000Z,47.5
2022-12-24T09:18:46.419Z,47.5
2022-12-24T09:19:55.000Z,47.5
2022-12-24T09:21:05.000Z,47.5
2022-12-24T09:22:15.782Z,47.5
2022-12-24T09:23:25.000Z,47.5
2022-12-24T09:24:36.000Z,47.5
2022-12-24T09:25:46.000Z,47.5
2022-12-24T09:26:56.000Z,47.5
2022-12-24T09:28:06.000Z,47.5
2022-12-24T09:29:16.485Z,47.5
2022-12-24T09:30:26.000Z,47.5
2022-12-24T09:31:36.000Z,47.5
2022-12-24T09:32:46.000Z,47.5
2022-12-24T09:33:56.000Z,47.5
2022-12-24T09:35:06.000Z,47.5
2022-12-24T09:36:16.196Z,47.5
2022-12-24T09:37:26.000Z,47.5
2022-12-24T09:38:36.000Z,47.5
2022-12-24T09:39:46.000Z,47.5
2022-12-24T09:40:56.656Z,47.5
2022-12-24T09:42:06.000Z,47.5
2022-12-24T09:43:16.000Z,47.5
2022-12-24T09:44:27.010Z,47.5
2022-12-24T09:45:37.118Z,47.5
2022-12-24T09:46:47.000Z,47.5
2022-12-24T09:47:57.000Z,47.5
2022-12-24T09:49:07.000Z,47.5
2022-12-24T09:50:16.000Z,47.5
2022-12-24T09:51:26.000Z,47.5
2022-12-24T09:52:36.000Z,47.5
2022-12-24T09:53:46.000Z,47.5
2022-12-24T09:54:57.065Z,47.5
2022-12-24T09:56:07.000Z,47.5
2022-12-24T09:57:17.000Z,47.5
2022-12-24T09:58:27.000Z,47.5
2022-12-24T09:59:37.000Z,47.5
2022-12-24T10:00:47.000Z,47.5
2022-12-24T10:01:57.000Z,47.5
2022-12-24T10:03:07.878Z,47.5
2022-12-24T10:04:17.986Z,47.5
2022-12-24T10:05:27.000Z,47.5
2022-12-24T10:06:37.000Z,47.5
2022-12-24T10:07:47.000Z,47.5
2022-12-24T10:08:57.000Z,47.5
2022-12-24T10:10:07.000Z,47.5
2022-12-24T10:11:17.697Z,47.5
2022-12-24T10:12:27.813Z,47.5
2022-12-24T10:13:37.933Z,47.5
2022-12-24T10:14:48.000Z,47.5
2022-12-24T10:15:58.166Z,47.5
2022-12-24T10:17:08.000Z,47.5
2022-12-24T10:18:18.000Z,47.5
2022-12-24T10:19:28.000Z,47.5
2022-12-24T10:20:37.000Z,47.5
2022-12-24T10:21:47.761Z,47.5
2022-12-24T10:22:57.000Z,47.5
2022-12-24T10:24:08.008Z,47.5
2022-12-24T10:25:18.108Z,47.5
2022-12-24T10:26:28.000Z,47.5
2022-12-24T10:27:38.000Z,47.5
2022-12-24T10:28:48.000Z,47.5
2022-12-24T10:29:58.000Z,47.5
2022-12-24T10:31:08.000Z,47.5
2022-12-24T10:32:18.000Z,47.5
2022-12-24T10:33:28.000Z,47.5
2022-12-24T10:34:39.000Z,47.5
2022-12-24T10:35:48.172Z,47.5
2022-12-24T10:36:58.000Z,47.6
2022-12-24T10:38:08.000Z,47.6
2022-12-24T10:39:18.000Z,47.6
2022-12-24T10:40:28.000Z,47.5
2022-12-24T10:41:38.000Z,47.5
2022-12-24T10:42:48.000Z,47.6
2022-12-24T10:43:58.000Z,47.6
2022-12-24T10:45:09.093Z,47.5
2022-12-24T10:46:19.216Z,47.5
2022-12-24T10:47:29.323Z,47.6
2022-12-24T10:48:39.000Z,47.5
2022-12-24T10:49:49.000Z,47.5
2022-12-24T10:50:58.000Z,47.5
2022-12-24T10:52:08.000Z,47.6
2022-12-24T10:53:18.000Z,47.5
2022-12-24T10:54:29.000Z,47.5
2022-12-24T10:55:39.000Z,47.5
2022-12-24T10:56:49.000Z,47.5
2022-12-24T10:57:59.000Z,47.5
2022-12-24T10:59:09.000Z,47.5
2022-12-24T11:00:19.629Z,47.5
2022-12-24T11:01:29.000Z,47.5
2022-12-24T11:02:39.000Z,47.4
2022-12-24T11:03:49.000Z,47.5
2022-12-24T11:05:00.000Z,47.4
2022-12-24T11:06:09.000Z,47.5
2022-12-24T11:07:19.326Z,47.5
2022-12-24T11:08:29.448Z,47.4
2022-12-24T11:09:39.000Z,47.4
2022-12-24T11:10:49.000Z,47.4
2022-12-24T11:11:59.000Z,47.4
2022-12-24T11:13:09.000Z,47.4
2022-12-24T11:14:20.000Z,47.4
2022-12-24T11:15:30.146Z,47.4
2022-12-24T11:16:40.000Z,47.4
2022-12-24T11:17:50.000Z,47.4
2022-12-24T11:19:00.000Z,47.4
2022-12-24T11:20:10.000Z,47.4
2022-12-24T11:21:19.752Z,47.4
2022-12-24T11:22:29.000Z,47.3
2022-12-24T11:23:39.000Z,47.3
2022-12-24T11:24:50.081Z,47.2
2022-12-24T11:26:00.000Z,47.1
2022-12-24T11:27:10.000Z,47.1
2022-12-24T11:28:20.000Z,47.1
2022-12-24T11:29:30.000Z,47.1
2022-12-24T11:30:40.000Z,47.1
2022-12-24T11:31:50.000Z,47
2022-12-24T11:33:00.000Z,47
2022-12-24T11:34:11.000Z,47
2022-12-24T11:35:21.118Z,47
2022-12-24T11:36:30.000Z,47
2022-12-24T11:37:40.368Z,47
2022-12-24T11:38:50.000Z,47.1
2022-12-24T11:40:00.599Z,47.1
2022-12-24T11:41:10.000Z,47.1
2022-12-24T11:42:20.835Z,47.1
2022-12-24T11:43:30.960Z,47.1
2022-12-24T11:44:41.000Z,47.1
2022-12-24T11:45:51.000Z,47.1
2022-12-24T11:47:01.000Z,47.2
2022-12-24T11:48:11.000Z,47.2
2022-12-24T11:49:21.531Z,47.2
2022-12-24T11:50:31.000Z,47.2
2022-12-24T11:51:40.778Z,47.2
2022-12-24T11:52:50.892Z,47.2
2022-12-24T11:54:01.000Z,47.2
2022-12-24T11:55:11.122Z,47.2
2022-12-24T11:56:21.000Z,47.2
2022-12-24T11:57:31.000Z,47.2
2022-12-24T11:58:41.000Z,47.2
2022-12-24T11:59:51.000Z,47.2
2022-12-24T12:01:01.000Z,47.2
2022-12-24T12:02:11.000Z,47.2
2022-12-24T12:03:21.000Z,47.2
2022-12-24T12:04:32.000Z,47.2
2022-12-24T12:05:42.000Z,47.3
2022-12-24T12:06:51.306Z,47.2
2022-12-24T12:08:01.000Z,47.2
2022-12-24T12:09:11.000Z,47.3
2022-12-24T12:10:21.000Z,47.3
2022-12-24T12:11:31.000Z,47.3
2022-12-24T12:12:41.000Z,47.2
2022-12-24T12:13:51.999Z,47.3
2022-12-24T12:15:02.110Z,47.3
2022-12-24T12:16:12.227Z,47.3
2022-12-24T12:17:22.000Z,47.3
2022-12-24T12:18:32.455Z,47.3
2022-12-24T12:19:42.000Z,47.3
2022-12-24T12:20:52.000Z,47.3
2022-12-24T12:22:01.000Z,47.3
2022-12-24T12:23:11.943Z,47.3
2022-12-24T12:24:22.069Z,47.3
2022-12-24T12:25:32.000Z,47.3
2022-12-24T12:26:42.000Z,47.3
2022-12-24T12:27:52.000Z,47.3
2022-12-24T12:29:01.000Z,47.3
2022-12-24T12:30:11.000Z,47.3
2022-12-24T12:31:21.773Z,47.3
2022-12-24T12:32:31.887Z,47.3
2022-12-24T12:33:42.000Z,47.4
2022-12-24T12:34:52.000Z,47.3
2022-12-24T12:36:02.000Z,47.3
2022-12-24T12:37:12.000Z,47.3
2022-12-24T12:38:22.465Z,47.3
2022-12-24T12:39:32.000Z,47.3
2022-12-24T12:40:42.702Z,47.3
2022-12-24T12:41:52.000Z,47.3
2022-12-24T12:43:02.931Z,47.3
2022-12-24T12:44:12.000Z,47.3
2022-12-24T12:45:22.000Z,47.3
2022-12-24T12:46:32.298Z,47.3
2022-12-24T12:47:42.000Z,47.3
2022-12-24T12:48:52.527Z,47.3
2022-12-24T12:50:02.000Z,47.3
2022-12-24T12:51:12.000Z,47.4
2022-12-24T12:52:22.000Z,47.4
2022-12-24T12:53:33.000Z,47.4
2022-12-24T12:54:43.000Z,47.4
2022-12-24T12:55:53.000Z,47.4
2022-12-24T12:57:03.337Z,47.4
2022-12-24T12:58:13.000Z,47.4
2022-12-24T12:59:22.000Z,47.3
2022-12-24T13:00:32.700Z,47.4
2022-12-24T13:01:42.818Z,47.4
2022-12-24T13:02:52.000Z,47.4
2022-12-24T13:04:03.000Z,47.4
2022-12-24T13:05:13.177Z,47.4
2022-12-24T13:06:23.283Z,47.4
2022-12-24T13:07:33.399Z,47.4
2022-12-24T13:08:43.000Z,47.4
2022-12-24T13:09:53.000Z,47.4
2022-12-24T13:11:03.000Z,47.3
2022-12-24T13:12:13.000Z,47.4
2022-12-24T13:13:23.000Z,47.3
2022-12-24T13:14:33.000Z,47.4
2022-12-24T13:15:43.233Z,47.4
2022-12-24T13:16:53.000Z,47.4
2022-12-24T13:18:03.000Z,47.4
2022-12-24T13:19:13.000Z,47.4
2022-12-24T13:20:23.000Z,47.4
2022-12-24T13:21:33.000Z,47.4
2022-12-24T13:22:43.920Z,47.4
2022-12-24T13:23:54.046Z,47.4
2022-12-24T13:25:04.000Z,47.4
2022-12-24T13:26:14.270Z,47.4
2022-12-24T13:27:24.384Z,47.4
2022-12-24T13:28:34.000Z,47.4
2022-12-24T13:29:43.000Z,47.4
2022-12-24T13:30:53.000Z,47.4
2022-12-24T13:32:03.000Z,47.4
2022-12-24T13:33:14.000Z,47.4
2022-12-24T13:34:24.000Z,47.4
2022-12-24T13:35:34.000Z,47.4
2022-12-24T13:36:44.000Z,47.4
2022-12-24T13:37:54.000Z,47.4
2022-12-24T13:39:04.571Z,47.4
2022-12-24T13:40:14.000Z,47.4
2022-12-24T13:41:24.000Z,47.4
2022-12-24T13:42:34.000Z,47.4
2022-12-24T13:43:45.000Z,47.4
2022-12-24T13:44:54.000Z,47.4
2022-12-24T13:46:04.000Z,47.4
2022-12-24T13:47:14.391Z,47.4
2022-12-24T13:48:24.504Z,47.4
2022-12-24T13:49:34.624Z,47.4
2022-12-24T13:50:44.738Z,47.4
2022-12-24T13:51:54.000Z,47.4
2022-12-24T13:53:04.000Z,47.4
2022-12-24T13:54:15.000Z,47.4
2022-12-24T13:55:25.000Z,47.4
2022-12-24T13:56:35.000Z,47.4
2022-12-24T13:57:45.000Z,47.4
2022-12-24T13:58:55.547Z,47.4
2022-12-24T14:00:04.000Z,47.4
2022-12-24T14:01:14.000Z,47.4
2022-12-24T14:02:24.000Z,47.4
2022-12-24T14:03:35.034Z,47.4
2022-12-24T14:04:45.149Z,47.4
2022-12-24T14:05:55.000Z,47.4
2022-12-24T14:07:05.000Z,47.4
2022-12-24T14:08:15.000Z,47.4
2022-12-24T14:09:25.000Z,47.4
2022-12-24T14:10:35.000Z,47.4
2022-12-24T14:11:45.000Z,47.4
2022-12-24T14:12:55.954Z,47.4
2022-12-24T14:14:06.000Z,47.4
2022-12-24T14:15:15.205Z,47.4
2022-12-24T14:16:25.321Z,47.4
2022-12-24T14:17:35.000Z,47.4
2022-12-24T14:18:45.552Z,47.4
2022-12-24T14:19:55.678Z,47.4
2022-12-24T14:21:05.792Z,47.4
2022-12-24T14:22:15.902Z,47.4
2022-12-24T14:23:26.000Z,47.4
2022-12-24T14:24:36.000Z,47.4
2022-12-24T14:25:46.000Z,47.5
2022-12-24T14:26:56.000Z,47.4
2022-12-24T14:28:06.000Z,47.4
2022-12-24T14:29:16.601Z,47.4
2022-12-24T14:30:25.727Z,47.4
2022-12-24T14:31:35.000Z,47.4
2022-12-24T14:32:45.957Z,47.4
2022-12-24T14:33:56.000Z,47.4
2022-12-24T14:35:06.000Z,47.4
2022-12-24T14:36:16.000Z,47.4
2022-12-24T14:37:26.424Z,47.4
2022-12-24T14:38:36.000Z,47.4
2022-12-24T14:39:46.000Z,47.4
2022-12-24T14:40:56.000Z,47.4
2022-12-24T14:42:06.000Z,47.4
2022-12-24T14:43:17.000Z,47.4
2022-12-24T14:44:27.117Z,47.4
2022-12-24T14:45:36.000Z,47.4
2022-12-24T14:46:46.000Z,47.4
2022-12-24T14:47:56.480Z,47.4
2022-12-24T14:49:06.598Z,47.4
2022-12-24T14:50:16.000Z,47.4
2022-12-24T14:51:26.000Z,47.4
2022-12-24T14:52:36.000Z,47.4
2022-12-24T14:53:47.000Z,47.4
2022-12-24T14:54:57.000Z,47.4
2022-12-24T14:56:07.000Z,47.4
2022-12-24T14:57:17.000Z,47.5
2022-12-24T14:58:27.000Z,47.4
2022-12-24T14:59:37.000Z,47.4
2022-12-24T15:00:46.000Z,47.4
2022-12-24T15:01:56.886Z,47.4
2022-12-24T15:03:07.000Z,47.5
2022-12-24T15:04:17.000Z,47.4
2022-12-24T15:05:27.237Z,47.5
2022-12-24T15:06:37.359Z,47.4
2022-12-24T15:07:47.000Z,47.4
2022-12-24T15:08:57.000Z,47.4
2022-12-24T15:10:07.698Z,47.4
2022-12-24T15:11:17.814Z,47.4
2022-12-24T15:12:27.000Z,47.4
2022-12-24T15:13:38.000Z,47.5
2022-12-24T15:14:48.163Z,47.5
2022-12-24T15:15:57.000Z,47.5
2022-12-24T15:17:07.000Z,47.5
2022-12-24T15:18:17.000Z,47.5
2022-12-24T15:19:27.641Z,47.5
2022-12-24T15:20:37.759Z,47.4
2022-12-24T15:21:47.872Z,47.5
2022-12-24T15:22:58.000Z,47.5
2022-12-24T15:24:08.000Z,47.5
2022-12-24T15:25:18.000Z,47.5
2022-12-24T15:26:28.337Z,47.5
2022-12-24T15:27:38.453Z,47.5
2022-12-24T15:28:48.000Z,47.5
2022-12-24T15:29:58.686Z,47.5
2022-12-24T15:31:07.000Z,47.5
2022-12-24T15:32:17.000Z,47.5
2022-12-24T15:33:28.000Z,47.6
2022-12-24T15:34:38.000Z,47.4
2022-12-24T15:35:48.000Z,47.6
2022-12-24T15:36:58.403Z,47.5
2022-12-24T15:38:08.000Z,47.5
2022-12-24T15:39:18.000Z,47.6
2022-12-24T15:40:28.751Z,47.6
2022-12-24T15:41:38.000Z,47.6
2022-12-24T15:42:48.000Z,47.6
2022-12-24T15:43:59.000Z,47.6
2022-12-24T15:45:09.000Z,47.6
2022-12-24T15:46:18.000Z,47.6